Lonetree, Colorado
Current Conditions -  °F | °C
As of 7:53 PM on Monday 20 Oct 2014 (Local Time) from KAPA Reporting Station
Scattered Clouds Scattered Clouds  
Wind Chill: 60°   Ceiling: Unl
Heat Index: 60°   Visibility: 10mi
Dew Point: 35°   Wind: 16mph
Humidity: 39%   Direction: 170°S
Pressure: 30.1"   Gusts: NA
Location:  39.5234°N, 104.912°W
Report Text: KAPA 210153Z 17014KT 10SM SCT110 SCT200 16/02 A3010 RMK AO2 SLP162 T01560017
Loading
Personal Weather Stations






























Interactive Weather Map
Tropical Storm Tracking
New forecast layout! Learn more

10-Day Weather Forecast

Advertisements
Track Severe Weather on mobile